createdAt,value
2024-03-16T00:02:39.749Z,9.30
2024-03-16T00:05:28.883Z,8.50
2024-03-16T00:08:16.898Z,8.50
2024-03-16T00:11:04.683Z,9.20
2024-03-16T00:13:52.564Z,10.30
2024-03-16T00:16:40.309Z,10.30
2024-03-16T00:19:28.104Z,9.00
2024-03-16T00:22:16.539Z,9.20
2024-03-16T00:25:06.193Z,10.10
2024-03-16T00:27:54.240Z,8.90
2024-03-16T00:30:43.082Z,9.50
2024-03-16T00:33:30.938Z,9.40
2024-03-16T00:36:18.924Z,9.30
2024-03-16T00:39:16.849Z,8.50
2024-03-16T00:42:05.217Z,8.50
2024-03-16T00:44:53.004Z,9.70
2024-03-16T00:47:41.603Z,8.90
2024-03-16T00:50:30.216Z,8.60
2024-03-16T00:53:19.199Z,8.50
2024-03-16T00:56:07.067Z,8.30
2024-03-16T00:58:55.066Z,8.70
2024-03-16T01:01:44.151Z,8.10
2024-03-16T01:04:35.469Z,8.40
2024-03-16T01:07:23.778Z,8.20
2024-03-16T01:10:13.378Z,7.80
2024-03-16T01:13:01.711Z,8.90
2024-03-16T01:15:51.139Z,8.40
2024-03-16T01:18:41.103Z,7.60
2024-03-16T01:21:29.186Z,7.80
2024-03-16T01:24:17.063Z,9.20
2024-03-16T01:27:04.726Z,8.50
2024-03-16T01:29:52.734Z,9.00
2024-03-16T01:32:40.438Z,8.80
2024-03-16T01:35:28.409Z,8.50
2024-03-16T01:38:19.731Z,8.90
2024-03-16T01:41:07.950Z,8.40
2024-03-16T01:44:10.764Z,9.10
2024-03-16T01:46:59.022Z,9.00
2024-03-16T01:49:47.082Z,7.60
2024-03-16T01:52:34.683Z,8.80
2024-03-16T01:55:22.732Z,8.60
2024-03-16T01:58:10.600Z,9.20
2024-03-16T02:00:58.840Z,8.50
2024-03-16T02:03:47.900Z,10.10
2024-03-16T02:06:36.103Z,9.40
2024-03-16T02:09:24.593Z,8.90
2024-03-16T02:12:14.155Z,8.20
2024-03-16T02:15:03.669Z,8.70
2024-03-16T02:17:51.942Z,8.50
2024-03-16T02:20:39.937Z,8.40
2024-03-16T02:23:27.957Z,8.50
2024-03-16T02:26:15.640Z,8.90
2024-03-16T02:29:04.000Z,10.60
2024-03-16T02:31:54.281Z,38.30
2024-03-16T02:34:43.098Z,28.20
2024-03-16T02:37:31.241Z,26.90
2024-03-16T02:40:18.978Z,25.50
2024-03-16T02:43:07.552Z,23.50
2024-03-16T02:45:59.001Z,20.50
2024-03-16T02:48:47.148Z,17.30
2024-03-16T02:51:35.343Z,15.70
2024-03-16T02:54:23.405Z,15.60
2024-03-16T02:57:11.221Z,13.60
2024-03-16T02:59:58.786Z,12.30
2024-03-16T03:02:46.586Z,12.50
2024-03-16T03:05:34.408Z,11.60
2024-03-16T03:08:22.608Z,11.70
2024-03-16T03:11:10.851Z,10.80
2024-03-16T03:13:58.584Z,12.40
2024-03-16T03:16:46.386Z,9.30
2024-03-16T03:19:34.159Z,12.20
2024-03-16T03:22:21.852Z,12.00
2024-03-16T03:25:11.670Z,10.00
2024-03-16T03:28:00.337Z,10.90
2024-03-16T03:30:50.306Z,9.70
2024-03-16T03:33:39.487Z,9.50
2024-03-16T03:36:27.930Z,11.30
2024-03-16T03:39:17.229Z,10.10
2024-03-16T03:42:05.640Z,10.10
2024-03-16T03:45:12.387Z,9.60
2024-03-16T03:48:19.751Z,14.60
2024-03-16T03:51:08.157Z,13.50
2024-03-16T03:53:58.919Z,10.00
2024-03-16T03:56:47.104Z,11.20
2024-03-16T03:59:35.376Z,12.00
2024-03-16T04:02:23.211Z,10.00
2024-03-16T04:05:11.068Z,10.20
2024-03-16T04:07:59.934Z,8.80
2024-03-16T04:10:48.230Z,7.90
2024-03-16T04:13:35.882Z,9.00
2024-03-16T04:16:23.773Z,8.70
2024-03-16T04:19:12.270Z,8.40
2024-03-16T04:22:00.380Z,9.10
2024-03-16T04:24:48.517Z,7.60
2024-03-16T04:27:37.360Z,8.40
2024-03-16T04:30:25.255Z,8.90
2024-03-16T04:33:13.794Z,8.20
2024-03-16T04:36:01.481Z,8.10
2024-03-16T04:38:49.675Z,7.50
2024-03-16T04:41:37.312Z,8.00
2024-03-16T04:44:25.045Z,8.00
2024-03-16T04:47:12.914Z,7.90
2024-03-16T04:50:01.561Z,8.60
2024-03-16T04:52:49.591Z,7.10
2024-03-16T04:55:37.360Z,8.90
2024-03-16T04:58:26.475Z,7.70
2024-03-16T05:01:14.970Z,8.20
2024-03-16T05:04:03.039Z,7.70
2024-03-16T05:06:50.949Z,8.10
2024-03-16T05:09:38.779Z,7.90
2024-03-16T05:12:26.258Z,6.50
2024-03-16T05:15:14.012Z,7.80
2024-03-16T05:18:01.752Z,7.60
2024-03-16T05:20:52.301Z,7.90
2024-03-16T05:23:41.035Z,7.20
2024-03-16T05:26:31.898Z,7.10
2024-03-16T05:29:20.201Z,6.70
2024-03-16T05:32:08.130Z,7.20
2024-03-16T05:34:56.572Z,6.60
2024-03-16T05:37:44.541Z,6.50
2024-03-16T05:40:32.540Z,6.50
2024-03-16T05:43:20.229Z,7.00
2024-03-16T05:46:07.735Z,7.40
2024-03-16T05:48:55.903Z,6.80
2024-03-16T05:51:44.827Z,7.90
2024-03-16T05:54:35.378Z,7.10
2024-03-16T05:57:23.692Z,6.10
2024-03-16T06:00:15.708Z,7.10
2024-03-16T06:03:04.052Z,7.20
2024-03-16T06:05:52.903Z,6.70
2024-03-16T06:08:40.634Z,7.10
2024-03-16T06:11:28.465Z,6.70
2024-03-16T06:14:16.918Z,6.90
2024-03-16T06:17:05.207Z,7.20
2024-03-16T06:19:54.993Z,7.10
2024-03-16T06:22:43.212Z,6.60
2024-03-16T06:25:37.143Z,6.60
2024-03-16T06:28:25.457Z,6.30
2024-03-16T06:31:13.243Z,7.10
2024-03-16T06:34:05.964Z,6.70
2024-03-16T06:36:54.486Z,6.50
2024-03-16T06:39:42.666Z,6.80
2024-03-16T06:42:30.802Z,6.40
2024-03-16T06:45:18.721Z,7.00
2024-03-16T06:48:07.379Z,6.80
2024-03-16T06:50:55.388Z,7.30
2024-03-16T06:53:43.602Z,6.00
2024-03-16T06:56:32.337Z,6.80
2024-03-16T06:59:20.545Z,6.80
2024-03-16T07:02:09.345Z,6.20
2024-03-16T07:04:57.395Z,7.00
2024-03-16T07:07:45.308Z,6.20
2024-03-16T07:10:33.127Z,6.90
2024-03-16T07:13:21.470Z,7.10
2024-03-16T07:16:15.117Z,6.70
2024-03-16T07:19:04.040Z,6.40
2024-03-16T07:21:52.405Z,6.40
2024-03-16T07:24:40.178Z,6.80
2024-03-16T07:27:27.720Z,6.30
2024-03-16T07:30:15.547Z,6.00
2024-03-16T07:33:04.810Z,7.00
2024-03-16T07:35:53.451Z,6.80
2024-03-16T07:38:41.479Z,5.90
2024-03-16T07:41:29.592Z,6.80
2024-03-16T07:44:17.348Z,7.20
2024-03-16T07:47:05.601Z,7.40
2024-03-16T07:49:53.719Z,6.80
2024-03-16T07:52:41.333Z,7.30
2024-03-16T07:55:31.210Z,6.80
2024-03-16T07:58:19.168Z,6.30
2024-03-16T08:01:07.301Z,6.10
2024-03-16T08:03:55.063Z,7.00
2024-03-16T08:06:43.134Z,5.70
2024-03-16T08:09:31.858Z,6.60
2024-03-16T08:12:19.667Z,6.10
2024-03-16T08:15:08.273Z,6.40
2024-03-16T08:17:58.767Z,6.20
2024-03-16T08:23:34.499Z,7.20
2024-03-16T08:26:22.384Z,6.10
2024-03-16T08:29:10.173Z,5.70
2024-03-16T08:31:59.579Z,6.00
2024-03-16T08:34:47.790Z,6.40
2024-03-16T08:37:35.708Z,6.60
2024-03-16T08:40:23.420Z,6.70
2024-03-16T08:43:12.613Z,5.80
2024-03-16T08:46:07.310Z,5.70
2024-03-16T08:48:55.042Z,6.10
2024-03-16T08:51:44.157Z,6.00
2024-03-16T08:54:39.007Z,5.50
2024-03-16T08:57:28.121Z,5.90
2024-03-16T09:00:16.037Z,4.90
2024-03-16T09:03:06.061Z,6.00
2024-03-16T09:05:54.688Z,5.90
2024-03-16T09:08:42.908Z,5.90
2024-03-16T09:11:30.915Z,6.40
2024-03-16T09:14:18.810Z,5.90
2024-03-16T09:17:06.752Z,5.80
2024-03-16T09:19:55.480Z,5.40
2024-03-16T09:22:44.775Z,5.90
2024-03-16T09:25:33.026Z,5.50
2024-03-16T09:28:23.167Z,6.10
2024-03-16T09:31:11.665Z,6.10
2024-03-16T09:34:00.776Z,5.80
2024-03-16T09:36:49.025Z,5.50
2024-03-16T09:39:36.767Z,5.30
2024-03-16T09:42:24.362Z,4.90
2024-03-16T09:45:19.596Z,4.00
2024-03-16T09:48:10.776Z,3.80
2024-03-16T09:50:59.362Z,4.10
2024-03-16T09:53:47.227Z,3.90
2024-03-16T09:56:38.083Z,3.70
2024-03-16T09:59:30.951Z,3.90
2024-03-16T10:02:25.689Z,4.00
2024-03-16T10:05:14.493Z,3.90
2024-03-16T10:08:02.644Z,3.30
2024-03-16T10:10:51.925Z,3.40
2024-03-16T10:13:54.286Z,3.30
2024-03-16T10:19:33.395Z,4.10
2024-03-16T10:22:21.513Z,4.70
2024-03-16T10:25:11.041Z,4.20
2024-03-16T10:27:58.633Z,3.30
2024-03-16T10:30:47.134Z,3.80
2024-03-16T10:33:39.600Z,4.90
2024-03-16T10:36:30.270Z,3.80
2024-03-16T10:39:19.026Z,4.50
2024-03-16T10:42:16.719Z,3.60
2024-03-16T10:45:05.211Z,3.80
2024-03-16T10:47:57.194Z,4.80
2024-03-16T10:50:48.629Z,4.20
2024-03-16T10:53:40.700Z,4.10
2024-03-16T10:56:33.621Z,4.70
2024-03-16T10:59:34.237Z,4.40
2024-03-16T11:02:24.510Z,4.20
2024-03-16T11:05:40.648Z,4.20
2024-03-16T11:08:47.843Z,3.50
2024-03-16T11:11:36.604Z,3.70
2024-03-16T11:14:26.287Z,4.70
2024-03-16T11:17:27.695Z,3.80
2024-03-16T11:20:39.241Z,3.50
2024-03-16T11:23:28.645Z,2.90
2024-03-16T11:26:28.575Z,3.20
2024-03-16T11:29:19.983Z,3.90
2024-03-16T11:32:11.579Z,3.20
2024-03-16T11:34:59.318Z,3.50
2024-03-16T11:37:50.588Z,4.50
2024-03-16T11:40:43.992Z,3.80
2024-03-16T11:43:31.937Z,3.70
2024-03-16T11:46:20.643Z,1.90
2024-03-16T11:49:16.036Z,2.20
2024-03-16T11:52:05.919Z,5.30
2024-03-16T11:54:53.735Z,2.80
2024-03-16T11:57:41.902Z,2.70
2024-03-16T12:00:30.670Z,2.70
2024-03-16T12:03:21.552Z,1.60
2024-03-16T12:06:11.531Z,2.10
2024-03-16T12:08:59.165Z,1.90
2024-03-16T12:11:49.876Z,1.90
2024-03-16T12:14:43.232Z,2.30
2024-03-16T12:17:32.199Z,2.00
2024-03-16T12:20:21.305Z,2.70
2024-03-16T12:23:09.824Z,2.90
2024-03-16T12:25:59.836Z,2.30
2024-03-16T12:28:49.331Z,3.70
2024-03-16T12:31:39.372Z,4.40
2024-03-16T12:34:29.181Z,7.10
2024-03-16T12:37:17.605Z,13.30
2024-03-16T12:40:07.296Z,12.90
2024-03-16T12:42:55.426Z,9.30
2024-03-16T12:45:43.217Z,6.70
2024-03-16T12:48:32.027Z,6.90
2024-03-16T12:51:20.872Z,3.30
2024-03-16T12:54:10.976Z,2.70
2024-03-16T12:56:59.307Z,3.40
2024-03-16T12:59:47.668Z,2.10
2024-03-16T13:02:35.821Z,1.90
2024-03-16T13:05:23.897Z,1.90
2024-03-16T13:08:11.904Z,1.70
2024-03-16T13:11:00.242Z,2.80
2024-03-16T13:13:48.762Z,3.80
2024-03-16T13:16:38.216Z,2.10
2024-03-16T13:19:27.799Z,3.70
2024-03-16T13:22:15.652Z,5.20
2024-03-16T13:25:04.980Z,5.60
2024-03-16T13:27:52.375Z,3.60
2024-03-16T13:30:40.466Z,3.70
2024-03-16T13:33:28.329Z,3.20
2024-03-16T13:36:16.957Z,5.50
2024-03-16T13:39:08.973Z,6.20
2024-03-16T13:41:56.817Z,6.00
2024-03-16T13:44:45.214Z,6.00
2024-03-16T13:47:33.405Z,6.50
2024-03-16T13:50:21.352Z,4.70
2024-03-16T13:53:09.494Z,4.20
2024-03-16T13:55:58.971Z,3.70
2024-03-16T13:58:47.221Z,3.20
2024-03-16T14:01:35.783Z,3.20
2024-03-16T14:04:23.817Z,3.30
2024-03-16T14:07:11.640Z,4.80
2024-03-16T14:10:02.193Z,3.50
2024-03-16T14:12:53.382Z,3.50
2024-03-16T14:15:41.332Z,3.60
2024-03-16T14:18:29.683Z,4.00
2024-03-16T14:21:17.330Z,5.30
2024-03-16T14:24:05.624Z,4.00
2024-03-16T14:26:53.394Z,3.40
2024-03-16T14:29:41.401Z,4.00
2024-03-16T14:32:29.884Z,3.10
2024-03-16T14:35:17.670Z,2.50
2024-03-16T14:38:06.693Z,2.90
2024-03-16T14:40:55.799Z,4.00
2024-03-16T14:43:44.794Z,3.80
2024-03-16T14:46:32.731Z,3.60
2024-03-16T14:49:23.020Z,3.20
2024-03-16T14:52:11.503Z,3.40
2024-03-16T14:55:00.328Z,3.70
2024-03-16T14:57:48.378Z,3.80
2024-03-16T15:00:37.147Z,5.40
2024-03-16T15:03:24.870Z,6.10
2024-03-16T15:06:13.213Z,7.30
2024-03-16T15:09:08.050Z,5.80
2024-03-16T15:11:56.058Z,4.90
2024-03-16T15:14:46.687Z,5.10
2024-03-16T15:17:36.553Z,4.10
2024-03-16T15:20:26.227Z,4.60
2024-03-16T15:23:13.756Z,4.20
2024-03-16T15:26:16.972Z,4.20
2024-03-16T15:29:04.966Z,3.80
2024-03-16T15:31:52.942Z,4.40
2024-03-16T15:34:40.596Z,4.20
2024-03-16T15:37:28.883Z,3.80
2024-03-16T15:40:16.994Z,4.30
2024-03-16T15:43:05.018Z,4.10
2024-03-16T15:45:52.632Z,3.90
2024-03-16T15:48:40.190Z,2.60
2024-03-16T15:51:29.975Z,3.20
2024-03-16T15:54:17.783Z,3.10
2024-03-16T15:57:07.303Z,3.60
2024-03-16T15:59:55.230Z,3.30
2024-03-16T16:02:43.186Z,3.60
2024-03-16T16:05:31.104Z,3.40
2024-03-16T16:08:19.253Z,4.50
2024-03-16T16:11:08.039Z,4.60
2024-03-16T16:13:56.141Z,4.10
2024-03-16T16:16:44.269Z,4.00
2024-03-16T16:19:32.421Z,3.40
2024-03-16T16:22:20.506Z,4.00
2024-03-16T16:25:08.736Z,4.10
2024-03-16T16:27:56.493Z,4.30
2024-03-16T16:30:44.722Z,4.60
2024-03-16T16:33:32.492Z,3.90
2024-03-16T16:36:20.671Z,4.10
2024-03-16T16:39:08.815Z,4.60
2024-03-16T16:41:56.750Z,4.40
2024-03-16T16:44:44.688Z,4.80
2024-03-16T16:47:32.525Z,5.10
2024-03-16T16:50:20.273Z,5.60
2024-03-16T16:53:09.839Z,4.70
2024-03-16T16:55:58.396Z,5.60
2024-03-16T16:58:46.025Z,5.20
2024-03-16T17:01:33.866Z,6.10
2024-03-16T17:04:21.601Z,5.40
2024-03-16T17:07:14.055Z,5.80
2024-03-16T17:10:13.458Z,6.70
2024-03-16T17:13:03.141Z,10.00
2024-03-16T17:15:52.087Z,7.70
2024-03-16T17:18:39.657Z,7.60
2024-03-16T17:21:27.380Z,8.00
2024-03-16T17:24:15.197Z,8.20
2024-03-16T17:27:07.327Z,7.40
2024-03-16T17:29:55.689Z,6.90
2024-03-16T17:32:44.038Z,7.60
2024-03-16T17:35:34.988Z,6.70
2024-03-16T17:38:25.970Z,7.30
2024-03-16T17:41:14.162Z,8.40
2024-03-16T17:44:02.058Z,7.20
2024-03-16T17:46:49.804Z,7.90
2024-03-16T17:49:39.970Z,7.70
2024-03-16T17:52:27.632Z,6.70
2024-03-16T17:55:16.803Z,12.30
2024-03-16T17:58:06.349Z,7.40
2024-03-16T18:00:54.191Z,18.60
2024-03-16T18:03:42.058Z,25.40
2024-03-16T18:06:29.761Z,14.60
2024-03-16T18:09:21.716Z,5.50
2024-03-16T18:12:12.185Z,6.60
2024-03-16T18:14:59.808Z,41.60
2024-03-16T18:17:54.664Z,41.40
2024-03-16T18:20:46.767Z,18.10
2024-03-16T18:23:35.516Z,21.50
2024-03-16T18:26:23.456Z,42.30
2024-03-16T18:29:11.103Z,44.20
2024-03-16T18:31:58.933Z,37.20
2024-03-16T18:34:47.067Z,12.60
2024-03-16T18:37:35.136Z,26.00
2024-03-16T18:40:22.949Z,21.70
2024-03-16T18:43:15.940Z,13.00
2024-03-16T18:46:04.665Z,10.80
2024-03-16T18:48:54.686Z,9.00
2024-03-16T18:51:42.722Z,9.90
2024-03-16T18:54:30.529Z,12.50
2024-03-16T18:57:20.006Z,11.00
2024-03-16T19:00:18.391Z,9.40
2024-03-16T19:03:14.397Z,8.10
2024-03-16T19:06:05.763Z,8.30
2024-03-16T19:08:53.704Z,11.00
2024-03-16T19:11:42.493Z,9.40
2024-03-16T19:14:30.681Z,10.10
2024-03-16T19:17:18.785Z,11.10
2024-03-16T19:20:08.711Z,7.20
2024-03-16T19:22:58.504Z,10.10
2024-03-16T19:25:46.742Z,10.80
2024-03-16T19:28:34.684Z,8.80
2024-03-16T19:31:25.921Z,8.40
2024-03-16T19:34:13.934Z,8.60
2024-03-16T19:37:02.080Z,8.10
2024-03-16T19:39:50.181Z,7.20
2024-03-16T19:42:38.779Z,8.30
2024-03-16T19:45:27.244Z,6.60
2024-03-16T19:48:15.711Z,6.80
2024-03-16T19:51:04.032Z,7.40
2024-03-16T19:53:51.931Z,6.60
2024-03-16T19:56:39.871Z,6.90
2024-03-16T19:59:27.964Z,6.20
2024-03-16T20:02:17.532Z,5.80
2024-03-16T20:05:06.084Z,5.10
2024-03-16T20:07:55.661Z,4.30
2024-03-16T20:10:43.769Z,5.20
2024-03-16T20:13:31.950Z,4.30
2024-03-16T20:16:19.836Z,5.60
2024-03-16T20:19:08.138Z,5.50
2024-03-16T20:21:57.594Z,4.90
2024-03-16T20:24:47.032Z,4.30
2024-03-16T20:27:35.992Z,4.10
2024-03-16T20:30:23.706Z,4.10
2024-03-16T20:33:14.034Z,4.40
2024-03-16T20:38:50.063Z,6.10
2024-03-16T20:41:39.539Z,5.70
2024-03-16T20:44:27.525Z,6.90
2024-03-16T20:47:15.519Z,6.10
2024-03-16T20:50:07.488Z,5.30
2024-03-16T20:52:55.387Z,7.30
2024-03-16T20:55:44.043Z,5.50
2024-03-16T20:58:32.808Z,4.70
2024-03-16T21:01:20.845Z,4.40
2024-03-16T21:04:10.003Z,5.90
2024-03-16T21:06:57.985Z,4.60
2024-03-16T21:09:45.910Z,5.30
2024-03-16T21:12:37.441Z,6.10
2024-03-16T21:15:26.583Z,7.00
2024-03-16T21:18:15.870Z,5.70
2024-03-16T21:21:14.655Z,3.40
2024-03-16T21:25:20.735Z,4.20
2024-03-16T21:28:16.660Z,3.50
2024-03-16T21:31:06.974Z,2.70
2024-03-16T21:33:55.442Z,2.40
2024-03-16T21:36:43.882Z,2.90
2024-03-16T21:39:33.085Z,2.70
2024-03-16T21:42:20.849Z,5.80
2024-03-16T21:45:10.063Z,4.50
2024-03-16T21:47:58.162Z,4.20
2024-03-16T21:50:47.952Z,3.60
2024-03-16T21:53:37.377Z,2.90
2024-03-16T21:56:25.587Z,2.20
2024-03-16T21:59:13.809Z,3.80
2024-03-16T22:02:02.478Z,3.00
2024-03-16T22:04:53.295Z,4.80
2024-03-16T22:07:43.789Z,5.10
2024-03-16T22:10:32.837Z,7.90
2024-03-16T22:13:20.828Z,7.60
2024-03-16T22:16:09.239Z,6.40
2024-03-16T22:18:57.290Z,5.70
2024-03-16T22:21:45.310Z,8.10
2024-03-16T22:24:34.492Z,13.00
2024-03-16T22:27:25.088Z,12.40
2024-03-16T22:30:16.208Z,12.70
2024-03-16T22:33:06.692Z,12.90
2024-03-16T22:38:42.313Z,11.30
2024-03-16T22:41:30.614Z,9.60
2024-03-16T22:44:19.972Z,4.70
2024-03-16T22:47:07.726Z,1.80
2024-03-16T22:49:55.821Z,6.60
2024-03-16T22:52:43.809Z,2.10
2024-03-16T22:55:32.016Z,1.70
2024-03-16T22:58:19.887Z,4.20
2024-03-16T23:01:07.973Z,2.20
2024-03-16T23:03:56.803Z,3.90
2024-03-16T23:06:47.801Z,3.20
2024-03-16T23:09:35.763Z,5.50
2024-03-16T23:12:24.188Z,4.20
2024-03-16T23:15:12.336Z,4.30
2024-03-16T23:18:00.070Z,2.50
2024-03-16T23:20:48.315Z,3.60
2024-03-16T23:23:37.426Z,2.80
2024-03-16T23:26:32.115Z,3.50
2024-03-16T23:29:25.004Z,3.10
2024-03-16T23:32:13.488Z,7.10
2024-03-16T23:35:01.735Z,5.90
2024-03-16T23:37:50.216Z,8.10
2024-03-16T23:40:39.296Z,7.30
2024-03-16T23:43:27.326Z,10.70
2024-03-16T23:46:15.239Z,22.00
2024-03-16T23:49:04.498Z,31.70
2024-03-16T23:51:52.490Z,7.10
2024-03-16T23:54:40.993Z,5.50
2024-03-16T23:57:28.837Z,11.30
